Time;durP1;ratioP1;P1;durP2;ratioP2;P2;SDS_P1;SDS_P2;PMS_P1;PMS_P2;Temp;Humidity;BMP_temperature;BMP_pressure;BME280_temperature;BME280_humidity;BME280_pressure;Samples;Min_cycle;Max_cycle;Signal;HPM_P1;HPM_P2
2022/09/03 00:00:35;;;;;;;2.80;1.40;;;18.40;42.80;;;;;;5061805;28;20420;-69
2022/09/03 00:03:09;;;;;;;2.20;1.40;;;18.30;43.10;;;;;;5058794;28;20831;-68
2022/09/03 00:05:40;;;;;;;2.00;1.20;;;18.30;44.30;;;;;;5061738;28;20438;-68
2022/09/03 00:08:13;;;;;;;1.75;1.20;;;18.30;43.60;;;;;;5062691;28;20519;-68
2022/09/03 00:10:46;;;;;;;2.00;1.10;;;18.20;44.20;;;;;;5048846;28;20417;-68
2022/09/03 00:13:17;;;;;;;1.80;1.40;;;18.30;43.80;;;;;;5046372;28;20435;-68
2022/09/03 00:15:44;;;;;;;1.90;1.23;;;18.30;44.00;;;;;;5060889;28;20473;-68
2022/09/03 00:18:16;;;;;;;3.08;1.30;;;18.20;43.60;;;;;;5060367;28;20506;-69
2022/09/03 00:20:47;;;;;;;3.20;1.20;;;18.10;44.00;;;;;;5049491;28;20445;-68
2022/09/03 00:23:19;;;;;;;2.75;1.50;;;18.10;44.30;;;;;;5061080;28;20430;-68
2022/09/03 00:25:54;;;;;;;2.00;1.50;;;18.10;44.50;;;;;;5044799;28;20528;-68
2022/09/03 00:28:26;;;;;;;3.25;1.30;;;18.00;45.10;;;;;;5046522;28;20810;-68
2022/09/03 00:31:01;;;;;;;3.05;1.33;;;18.00;44.90;;;;;;5053780;28;20431;-68
2022/09/03 00:33:32;;;;;;;1.40;1.30;;;17.90;46.40;;;;;;5056578;28;20451;-68
2022/09/03 00:36:10;;;;;;;1.70;1.50;;;17.90;45.40;;;;;;5071101;22;20436;-74
2022/09/03 00:38:39;;;;;;;2.30;1.20;;;17.90;45.60;;;;;;5058170;28;20427;-74
2022/09/03 00:41:10;;;;;;;2.35;1.50;;;17.80;46.00;;;;;;5056263;28;20440;-73
2022/09/03 00:43:55;;;;;;;2.10;1.20;;;17.80;45.80;;;;;;5068143;28;20415;-74
2022/09/03 00:46:30;;;;;;;3.40;1.38;;;17.80;46.50;;;;;;5067725;28;20431;-72
2022/09/03 00:49:19;;;;;;;2.00;1.40;;;17.70;46.00;;;;;;5048382;28;20414;-75
2022/09/03 00:51:51;;;;;;;2.47;1.40;;;17.70;46.40;;;;;;5062966;28;20415;-73
2022/09/03 00:54:24;;;;;;;2.92;1.25;;;17.60;46.70;;;;;;5068554;28;20419;-74
2022/09/03 00:57:03;;;;;;;2.53;1.48;;;17.60;46.80;;;;;;5069378;28;20489;-75
2022/09/03 00:59:40;;;;;;;2.33;1.43;;;17.60;47.20;;;;;;5068510;28;20516;-75
2022/09/03 01:02:17;;;;;;;2.13;1.30;;;17.50;47.10;;;;;;5043886;28;20431;-74
2022/09/03 01:04:56;;;;;;;2.25;1.40;;;17.50;47.00;;;;;;5065855;28;20423;-75
2022/09/03 01:07:34;;;;;;;1.90;1.30;;;17.40;47.50;;;;;;5069470;28;20893;-74
2022/09/03 01:10:12;;;;;;;1.73;1.35;;;17.40;48.60;;;;;;5063866;28;20425;-75
2022/09/03 01:12:51;;;;;;;1.20;1.10;;;17.40;47.60;;;;;;5050700;28;20433;-74
2022/09/03 01:15:27;;;;;;;2.58;1.30;;;17.40;47.90;;;;;;5061466;28;20914;-76
2022/09/03 01:18:11;;;;;;;3.05;1.60;;;17.30;47.90;;;;;;5042582;28;20432;-74
2022/09/03 01:20:51;;;;;;;2.67;1.40;;;17.30;49.30;;;;;;5051898;28;20946;-74
2022/09/03 01:23:53;;;;;;;2.57;1.33;;;17.30;48.00;;;;;;5044458;28;20409;-74
2022/09/03 01:26:55;;;;;;;3.40;1.73;;;17.30;48.70;;;;;;5047734;28;20468;-73
2022/09/03 01:29:34;;;;;;;1.52;1.30;;;17.20;48.60;;;;;;5050288;28;20432;-74
2022/09/03 01:32:08;;;;;;;3.05;1.70;;;17.20;48.90;;;;;;5056429;28;21074;-74
2022/09/03 01:34:45;;;;;;;1.90;1.40;;;17.20;49.00;;;;;;5040469;28;20432;-74
2022/09/03 01:37:19;;;;;;;3.20;1.50;;;17.10;49.30;;;;;;5051212;28;20428;-73
2022/09/03 01:39:55;;;;;;;3.30;1.73;;;17.10;49.30;;;;;;5050569;28;20440;-76
2022/09/03 01:42:30;;;;;;;2.63;1.55;;;17.10;49.20;;;;;;5051507;28;20425;-74
2022/09/03 01:45:20;;;;;;;2.70;1.60;;;17.10;49.30;;;;;;5050357;28;20459;-75
2022/09/03 01:48:02;;;;;;;2.83;1.60;;;17.10;49.30;;;;;;5056740;28;20489;-75
2022/09/03 01:50:39;;;;;;;1.98;1.35;;;17.10;50.00;;;;;;5079133;28;20448;-74
2022/09/03 01:53:10;;;;;;;3.17;1.70;;;17.00;49.70;;;;;;5077969;28;20437;-75
2022/09/03 01:55:56;;;;;;;2.30;1.60;;;17.00;50.20;;;;;;5068779;28;20425;-74
2022/09/03 01:58:30;;;;;;;2.88;1.40;;;17.00;50.50;;;;;;5063210;28;20465;-73
2022/09/03 02:01:03;;;;;;;1.50;1.40;;;17.00;51.20;;;;;;5062284;28;20926;-74
2022/09/03 02:03:37;;;;;;;1.60;1.50;;;17.00;52.50;;;;;;5061941;28;20419;-73
2022/09/03 02:06:05;;;;;;;2.60;1.58;;;17.00;51.70;;;;;;5067142;28;20424;-74
2022/09/03 02:08:32;;;;;;;2.13;1.67;;;17.00;51.60;;;;;;5058072;28;20486;-75
2022/09/03 02:11:01;;;;;;;3.13;1.80;;;17.00;51.80;;;;;;5059469;28;20421;-74
2022/09/03 02:13:31;;;;;;;3.17;1.95;;;16.90;51.70;;;;;;5049352;28;20510;-73
2022/09/03 02:16:03;;;;;;;2.00;1.80;;;16.90;51.80;;;;;;5043884;28;20442;-74
2022/09/03 02:18:33;;;;;;;2.35;1.58;;;16.80;52.00;;;;;;5061729;28;21080;-73
2022/09/03 02:21:00;;;;;;;2.00;1.60;;;16.80;51.70;;;;;;5035433;28;20467;-74
2022/09/03 02:23:28;;;;;;;2.50;1.60;;;16.80;52.30;;;;;;5078748;28;20426;-75
2022/09/03 02:25:58;;;;;;;2.00;1.60;;;16.80;52.60;;;;;;5087779;28;20415;-74
2022/09/03 02:28:26;;;;;;;2.22;1.70;;;16.70;52.70;;;;;;5090186;28;20437;-72
2022/09/03 02:30:53;;;;;;;2.10;1.80;;;16.70;52.30;;;;;;5067837;28;20425;-74
2022/09/03 02:33:21;;;;;;;1.90;1.65;;;16.70;52.40;;;;;;5043527;28;20423;-74
2022/09/03 02:35:49;;;;;;;1.88;1.50;;;16.70;52.80;;;;;;5064904;28;20429;-75
2022/09/03 02:38:17;;;;;;;2.95;1.60;;;16.70;52.00;;;;;;5050905;28;20960;-74
2022/09/03 02:40:44;;;;;;;1.30;1.20;;;16.70;51.90;;;;;;5048947;28;20903;-74
2022/09/03 02:43:17;;;;;;;2.08;1.30;;;16.70;51.30;;;;;;5052341;28;20433;-76
2022/09/03 02:45:48;;;;;;;1.95;1.35;;;16.70;51.70;;;;;;5051293;28;20984;-74
2022/09/03 02:48:20;;;;;;;1.88;1.30;;;16.70;51.60;;;;;;5048839;28;20422;-73
2022/09/03 02:50:48;;;;;;;1.50;1.10;;;16.70;51.00;;;;;;5048999;28;20512;-74
2022/09/03 02:53:16;;;;;;;2.53;1.40;;;16.70;50.80;;;;;;5056171;28;20925;-74
2022/09/03 02:55:43;;;;;;;1.70;1.38;;;16.60;51.00;;;;;;5044904;28;20446;-74
2022/09/03 02:58:10;;;;;;;1.77;1.33;;;16.70;51.10;;;;;;5045282;28;20424;-74
2022/09/03 03:00:37;;;;;;;2.70;1.50;;;16.60;51.10;;;;;;5052885;28;20432;-74
2022/09/03 03:03:04;;;;;;;2.13;1.30;;;16.60;51.50;;;;;;5049114;28;20503;-74
2022/09/03 03:05:41;;;;;;;2.20;1.30;;;16.60;51.20;;;;;;5048886;28;20930;-74
2022/09/03 03:08:11;;;;;;;1.95;1.20;;;16.60;51.60;;;;;;5054792;28;20975;-73
2022/09/03 03:10:38;;;;;;;2.22;1.30;;;16.60;51.70;;;;;;5055768;28;20436;-75
2022/09/03 03:13:04;;;;;;;2.00;1.40;;;16.60;52.60;;;;;;5050206;28;20487;-73
2022/09/03 03:15:31;;;;;;;2.70;1.40;;;16.60;51.00;;;;;;5053283;28;20424;-73
2022/09/03 03:17:58;;;;;;;2.33;1.30;;;16.60;51.30;;;;;;5058042;28;20423;-74
2022/09/03 03:20:25;;;;;;;2.10;1.38;;;16.60;51.50;;;;;;5051018;28;20437;-74
2022/09/03 03:22:52;;;;;;;2.70;1.40;;;16.50;51.60;;;;;;5061718;28;20436;-75
2022/09/03 03:25:20;;;;;;;1.85;1.40;;;16.50;51.60;;;;;;5049294;28;21065;-74
2022/09/03 03:27:47;;;;;;;2.08;1.17;;;16.50;51.90;;;;;;5052794;28;20953;-74
2022/09/03 03:30:14;;;;;;;1.90;1.33;;;16.60;51.90;;;;;;5068444;28;21235;-73
2022/09/03 03:32:41;;;;;;;1.30;1.20;;;16.60;51.90;;;;;;5066479;28;20420;-73
2022/09/03 03:35:10;;;;;;;1.38;1.20;;;16.60;52.20;;;;;;5056104;28;20998;-73
2022/09/03 03:37:37;;;;;;;3.00;1.00;;;16.60;51.30;;;;;;5044887;28;20457;-73
2022/09/03 03:40:05;;;;;;;1.80;1.10;;;16.60;51.00;;;;;;5051803;28;20789;-74
2022/09/03 03:42:34;;;;;;;1.50;1.40;;;16.60;51.40;;;;;;5055142;28;20481;-75
2022/09/03 03:45:01;;;;;;;3.13;1.20;;;16.60;51.20;;;;;;5057520;28;20436;-75
2022/09/03 03:47:29;;;;;;;2.00;1.65;;;16.60;51.10;;;;;;5058067;28;20432;-73
2022/09/03 03:49:56;;;;;;;1.48;1.20;;;16.50;51.10;;;;;;5054391;28;21131;-72
2022/09/03 03:52:23;;;;;;;1.80;1.23;;;16.50;51.00;;;;;;5079960;28;20467;-73
2022/09/03 03:54:50;;;;;;;2.30;1.30;;;16.50;51.40;;;;;;5076044;28;20493;-72
2022/09/03 03:57:18;;;;;;;1.80;1.20;;;16.50;51.50;;;;;;5066390;28;20448;-74
2022/09/03 03:59:47;;;;;;;3.23;1.60;;;16.50;52.00;;;;;;5062803;28;20545;-74
2022/09/03 04:02:14;;;;;;;1.40;1.20;;;16.50;52.40;;;;;;5056985;28;20417;-75
2022/09/03 04:04:41;;;;;;;1.70;1.33;;;16.50;51.90;;;;;;5043564;28;20429;-75
2022/09/03 04:07:08;;;;;;;1.65;1.23;;;16.50;51.60;;;;;;5049253;28;20455;-75
2022/09/03 04:09:36;;;;;;;2.00;1.20;;;16.50;51.30;;;;;;5046871;28;20429;-74
2022/09/03 04:12:04;;;;;;;1.45;1.30;;;16.50;51.50;;;;;;5039922;28;20429;-74
2022/09/03 04:14:31;;;;;;;3.38;1.77;;;16.50;51.40;;;;;;5046513;28;20440;-74
2022/09/03 04:16:59;;;;;;;2.70;1.30;;;16.50;52.20;;;;;;5047329;28;20436;-72
2022/09/03 04:19:27;;;;;;;1.90;1.40;;;16.60;51.70;;;;;;5047134;28;20442;-74
2022/09/03 04:21:54;;;;;;;1.70;1.40;;;16.60;51.20;;;;;;5046069;28;20452;-73
2022/09/03 04:24:21;;;;;;;2.10;1.30;;;16.60;51.30;;;;;;5042089;28;20443;-76
2022/09/03 04:26:49;;;;;;;1.50;1.00;;;16.60;51.90;;;;;;5048224;28;20949;-74
2022/09/03 04:29:16;;;;;;;1.30;1.20;;;16.60;51.80;;;;;;5044995;28;20436;-73
2022/09/03 04:32:51;;;;;;;1.30;1.10;;;16.60;51.40;;;;;;5045416;28;20433;-73
2022/09/03 04:34:32;;;;;;;2.22;1.30;;;16.60;52.50;;;;;;5039683;28;20974;-75
2022/09/03 04:36:59;;;;;;;2.05;1.10;;;16.60;51.60;;;;;;5047097;28;20517;-74
2022/09/03 04:39:26;;;;;;;1.70;1.27;;;16.50;52.00;;;;;;5040690;28;20441;-73
2022/09/03 04:41:52;;;;;;;2.20;1.40;;;16.50;52.10;;;;;;5046108;28;20429;-74
2022/09/03 04:44:19;;;;;;;2.13;1.30;;;16.50;52.20;;;;;;5045278;28;20436;-74
2022/09/03 04:46:47;;;;;;;2.20;1.45;;;16.50;52.40;;;;;;5042499;28;20437;-74
2022/09/03 04:49:14;;;;;;;1.73;1.20;;;16.50;52.30;;;;;;5053300;28;20495;-74
2022/09/03 04:51:42;;;;;;;1.40;1.30;;;16.50;52.40;;;;;;5045207;28;20439;-74
2022/09/03 04:54:10;;;;;;;2.90;1.30;;;16.50;52.30;;;;;;5047825;28;20432;-73
2022/09/03 04:56:38;;;;;;;1.30;1.20;;;16.50;52.50;;;;;;5047383;28;20456;-74
2022/09/03 04:59:07;;;;;;;1.52;1.25;;;16.50;52.50;;;;;;5051060;28;20452;-75
2022/09/03 05:01:36;;;;;;;1.80;1.27;;;16.50;52.60;;;;;;5056635;28;20499;-73
2022/09/03 05:04:04;;;;;;;1.65;1.27;;;16.50;52.20;;;;;;5066465;28;20663;-72
2022/09/03 05:06:32;;;;;;;2.50;1.50;;;16.50;52.30;;;;;;5075882;27;20421;-71
2022/09/03 05:09:05;;;;;;;1.50;1.30;;;16.50;52.10;;;;;;5065335;28;20484;-73
2022/09/03 05:11:32;;;;;;;1.60;1.40;;;16.50;52.40;;;;;;5062674;28;20413;-73
2022/09/03 05:14:00;;;;;;;1.80;1.30;;;16.60;52.50;;;;;;5046695;28;20439;-75
2022/09/03 05:16:29;;;;;;;1.30;1.20;;;16.60;53.00;;;;;;5043543;28;21001;-74
2022/09/03 05:18:58;;;;;;;1.45;1.17;;;16.60;52.20;;;;;;5048748;28;21882;-74
2022/09/03 05:21:25;;;;;;;1.40;1.30;;;16.60;51.70;;;;;;5047203;28;20443;-72
2022/09/03 05:23:52;;;;;;;2.40;1.30;;;16.60;51.80;;;;;;5052342;28;20436;-74
2022/09/03 05:26:23;;;;;;;2.00;1.20;;;16.60;52.00;;;;;;5048133;28;20433;-75
2022/09/03 05:28:54;;;;;;;1.50;1.10;;;16.60;51.90;;;;;;5049941;28;20429;-74
2022/09/03 05:31:22;;;;;;;1.50;1.30;;;16.70;52.20;;;;;;5051901;28;20428;-74
2022/09/03 05:33:50;;;;;;;1.98;1.20;;;16.70;51.40;;;;;;5049940;28;20842;-72
2022/09/03 05:36:19;;;;;;;2.53;1.30;;;16.70;51.40;;;;;;5050688;28;20911;-75
2022/09/03 05:38:47;;;;;;;2.28;1.20;;;16.70;52.00;;;;;;5050696;28;20917;-75
2022/09/03 05:41:15;;;;;;;1.30;1.20;;;16.70;51.80;;;;;;5050720;28;20440;-74
2022/09/03 05:43:44;;;;;;;2.20;1.30;;;16.70;51.80;;;;;;5050844;28;20417;-73
2022/09/03 05:46:14;;;;;;;1.80;1.30;;;16.70;51.80;;;;;;5042844;28;20905;-73
2022/09/03 05:48:41;;;;;;;3.20;1.30;;;16.70;51.90;;;;;;5042243;28;20440;-73
2022/09/03 05:51:10;;;;;;;1.60;1.30;;;16.80;52.00;;;;;;5048950;28;21192;-73
2022/09/03 05:53:38;;;;;;;1.30;1.10;;;16.80;51.60;;;;;;5042322;28;20487;-73
2022/09/03 05:56:08;;;;;;;1.70;1.10;;;16.80;51.50;;;;;;5048002;28;20429;-74
2022/09/03 05:58:37;;;;;;;2.20;1.30;;;16.90;51.50;;;;;;5046043;28;20438;-73
2022/09/03 06:01:13;;;;;;;1.90;1.30;;;17.00;51.30;;;;;;5049912;28;20468;-74
2022/09/03 06:03:40;;;;;;;1.50;1.10;;;17.00;51.20;;;;;;5045431;28;20437;-73
2022/09/03 06:06:08;;;;;;;1.80;1.30;;;17.10;51.60;;;;;;5045207;28;20480;-73
2022/09/03 06:08:36;;;;;;;2.10;1.20;;;17.10;51.30;;;;;;5047746;28;20477;-69
2022/09/03 06:11:03;;;;;;;2.63;1.20;;;17.20;50.60;;;;;;5050786;28;22183;-69
2022/09/03 06:13:31;;;;;;;1.80;1.25;;;17.20;50.50;;;;;;5049653;28;20433;-70
2022/09/03 06:15:59;;;;;;;2.45;1.27;;;17.20;50.80;;;;;;5048677;28;20516;-70
2022/09/03 06:18:28;;;;;;;2.05;1.20;;;17.30;50.80;;;;;;5050071;28;20431;-69
2022/09/03 06:20:56;;;;;;;1.55;1.10;;;17.30;51.70;;;;;;5053017;28;20431;-71
2022/09/03 06:23:23;;;;;;;2.00;1.20;;;17.40;50.80;;;;;;5048684;28;20441;-70
2022/09/03 06:26:00;;;;;;;1.35;1.20;;;17.40;50.50;;;;;;5054791;28;20436;-70
2022/09/03 06:28:27;;;;;;;3.20;1.20;;;17.50;50.60;;;;;;5049431;28;20425;-71
2022/09/03 06:30:55;;;;;;;1.70;1.00;;;17.50;50.10;;;;;;5059760;28;20425;-70
2022/09/03 06:33:23;;;;;;;2.20;1.30;;;17.50;50.00;;;;;;5053521;28;20433;-70
2022/09/03 06:35:56;;;;;;;1.10;1.00;;;17.60;50.00;;;;;;5049615;28;20465;-71
2022/09/03 06:38:23;;;;;;;2.15;1.20;;;17.60;50.30;;;;;;5084345;22;20546;-73
2022/09/03 06:40:52;;;;;;;1.48;1.00;;;17.70;50.20;;;;;;5076849;28;20460;-73
2022/09/03 06:43:19;;;;;;;1.92;1.10;;;17.80;49.70;;;;;;5079572;28;20425;-72
2022/09/03 06:45:53;;;;;;;1.65;1.13;;;17.80;49.60;;;;;;5071746;28;20446;-72
2022/09/03 06:48:20;;;;;;;2.70;1.40;;;17.90;49.20;;;;;;5069537;28;20780;-72
2022/09/03 06:50:55;;;;;;;2.40;1.38;;;17.90;49.40;;;;;;5064299;28;20435;-72
2022/09/03 06:53:24;;;;;;;2.20;1.20;;;18.00;48.90;;;;;;5063375;28;20443;-72
2022/09/03 06:55:55;;;;;;;1.67;1.40;;;18.00;48.80;;;;;;5059226;28;20528;-72
2022/09/03 06:58:22;;;;;;;1.70;1.17;;;18.10;48.90;;;;;;5063198;28;20435;-73
2022/09/03 07:00:51;;;;;;;3.30;1.10;;;18.20;49.00;;;;;;5057411;28;20724;-72
2022/09/03 07:03:18;;;;;;;1.70;1.10;;;18.20;48.40;;;;;;5063846;28;20487;-72
2022/09/03 07:05:45;;;;;;;1.60;1.10;;;18.30;48.90;;;;;;5060137;28;20540;-72
2022/09/03 07:08:13;;;;;;;1.30;1.20;;;18.40;48.30;;;;;;5069831;28;20950;-72
2022/09/03 07:10:41;;;;;;;2.10;1.25;;;18.40;47.90;;;;;;5063928;28;20416;-72
2022/09/03 07:13:08;;;;;;;2.00;0.98;;;18.40;48.10;;;;;;5062878;28;20422;-71
2022/09/03 07:15:35;;;;;;;2.05;1.10;;;18.50;47.90;;;;;;5064060;28;20423;-72
2022/09/03 07:18:02;;;;;;;1.60;1.20;;;18.60;47.80;;;;;;5064004;28;20896;-72
2022/09/03 07:20:29;;;;;;;1.80;1.13;;;18.60;47.80;;;;;;5061621;28;20454;-71
2022/09/03 07:22:56;;;;;;;4.10;1.30;;;18.80;47.40;;;;;;5065679;28;20511;-71
2022/09/03 07:25:26;;;;;;;3.78;1.92;;;18.90;47.80;;;;;;5064398;28;20782;-71
2022/09/03 07:27:53;;;;;;;1.33;1.05;;;19.00;47.30;;;;;;5064354;28;20582;-72
2022/09/03 07:30:19;;;;;;;3.10;1.40;;;19.10;47.00;;;;;;5063740;28;20454;-71
2022/09/03 07:32:49;;;;;;;2.17;1.30;;;19.00;46.50;;;;;;5064710;28;20427;-72
2022/09/03 07:35:17;;;;;;;2.28;1.30;;;19.00;46.90;;;;;;5058118;28;20539;-72
2022/09/03 07:37:44;;;;;;;2.90;1.33;;;19.00;47.00;;;;;;5063354;28;20602;-71
2022/09/03 07:40:12;;;;;;;2.08;1.60;;;19.00;47.50;;;;;;5052436;28;21036;-72
2022/09/03 07:42:40;;;;;;;4.30;1.50;;;19.00;48.10;;;;;;5063655;28;20462;-74
2022/09/03 07:45:11;;;;;;;3.40;1.60;;;19.10;47.40;;;;;;5060716;28;20440;-71
2022/09/03 07:47:38;;;;;;;1.80;1.33;;;19.30;47.30;;;;;;5059614;28;20433;-71
2022/09/03 07:50:05;;;;;;;1.50;1.20;;;19.30;47.40;;;;;;5062749;28;20523;-71
2022/09/03 07:52:32;;;;;;;1.70;1.17;;;19.50;46.50;;;;;;5063549;28;20462;-71
2022/09/03 07:54:59;;;;;;;2.22;1.20;;;19.70;46.20;;;;;;5063761;28;20468;-71
2022/09/03 07:57:26;;;;;;;2.65;1.15;;;19.80;45.70;;;;;;5069585;28;20472;-73
2022/09/03 07:59:54;;;;;;;1.95;1.15;;;19.80;45.00;;;;;;5063825;28;20423;-73
2022/09/03 08:02:21;;;;;;;1.52;1.17;;;19.90;45.20;;;;;;5062454;28;20469;-71
2022/09/03 08:04:48;;;;;;;1.50;1.10;;;19.90;45.30;;;;;;5062604;28;20433;-73
2022/09/03 08:07:15;;;;;;;1.75;1.30;;;19.90;45.00;;;;;;5063047;28;20426;-74
2022/09/03 08:09:42;;;;;;;1.90;1.10;;;19.90;46.00;;;;;;5063684;28;20430;-73
2022/09/03 08:12:08;;;;;;;1.58;1.00;;;20.00;45.00;;;;;;5062916;28;20427;-74
2022/09/03 08:14:35;;;;;;;2.17;1.27;;;20.00;45.30;;;;;;5062495;28;20436;-73
2022/09/03 08:17:03;;;;;;;1.80;1.20;;;20.10;45.00;;;;;;5062491;28;20489;-73
2022/09/03 08:19:30;;;;;;;2.03;1.20;;;20.10;45.40;;;;;;5063639;28;20506;-73
2022/09/03 08:21:57;;;;;;;2.00;1.10;;;20.10;45.10;;;;;;5056484;28;20934;-73
2022/09/03 08:24:25;;;;;;;1.15;1.05;;;20.10;44.90;;;;;;5062948;28;20463;-73
2022/09/03 08:26:52;;;;;;;1.70;1.05;;;20.00;45.40;;;;;;5062356;28;20443;-73
2022/09/03 08:29:19;;;;;;;1.40;1.10;;;20.00;46.10;;;;;;5064142;28;21025;-73
2022/09/03 08:31:46;;;;;;;2.50;1.10;;;20.10;45.90;;;;;;5062912;28;20419;-73
2022/09/03 08:34:16;;;;;;;2.05;1.20;;;19.90;46.60;;;;;;5060875;28;20434;-73
2022/09/03 08:36:43;;;;;;;2.50;1.30;;;19.90;48.70;;;;;;5057191;28;20436;-74
2022/09/03 08:39:11;;;;;;;2.35;1.60;;;19.90;48.40;;;;;;5063084;28;20531;-73
2022/09/03 08:42:07;;;;;;;1.88;1.42;;;19.90;48.80;;;;;;5060351;28;20435;-72
2022/09/03 08:44:45;;;;;;;1.63;1.52;;;20.00;49.00;;;;;;5060578;28;20441;-73
2022/09/03 08:47:16;;;;;;;2.30;1.20;;;20.00;49.10;;;;;;5061647;28;20484;-73
2022/09/03 08:49:49;;;;;;;1.60;1.30;;;20.00;49.20;;;;;;5069909;28;20477;-72
2022/09/03 08:52:25;;;;;;;2.40;1.40;;;20.00;49.70;;;;;;5065787;28;20454;-72
2022/09/03 08:54:56;;;;;;;2.40;1.30;;;19.90;50.00;;;;;;5060851;28;20441;-71
2022/09/03 08:57:24;;;;;;;2.70;1.92;;;19.80;49.90;;;;;;5064612;28;20533;-71
2022/09/03 08:59:55;;;;;;;2.40;1.50;;;19.60;50.40;;;;;;5064392;28;20450;-71
2022/09/03 09:02:32;;;;;;;2.00;1.80;;;19.50;51.50;;;;;;5066951;28;20444;-71
2022/09/03 09:05:07;;;;;;;2.10;1.57;;;19.40;51.20;;;;;;5064683;28;20424;-71
2022/09/03 09:07:41;;;;;;;2.43;1.80;;;19.40;51.30;;;;;;5062440;28;20440;-71
2022/09/03 09:10:13;;;;;;;1.70;1.60;;;19.30;51.70;;;;;;5068564;28;20451;-71
2022/09/03 09:12:47;;;;;;;1.90;1.70;;;19.40;52.00;;;;;;5065848;28;20434;-71
2022/09/03 09:15:30;;;;;;;3.28;2.40;;;19.20;51.70;;;;;;5061051;28;20434;-71
2022/09/03 09:18:11;;;;;;;4.88;4.07;;;19.30;53.00;;;;;;5065934;28;20450;-71
2022/09/03 09:20:46;;;;;;;4.85;4.20;;;19.20;53.00;;;;;;5064239;28;20927;-71
2022/09/03 09:23:15;;;;;;;3.90;3.60;;;19.10;54.70;;;;;;5062943;28;20487;-74
2022/09/03 09:25:48;;;;;;;2.30;1.90;;;19.00;56.90;;;;;;5063797;28;20515;-71
2022/09/03 09:28:18;;;;;;;4.55;1.90;;;18.90;60.00;;;;;;5068297;28;20436;-71
2022/09/03 09:30:47;;;;;;;2.42;1.92;;;18.70;61.30;;;;;;5064237;28;20415;-71
2022/09/03 09:33:14;;;;;;;3.35;2.10;;;18.50;62.80;;;;;;5064473;28;20431;-71
2022/09/03 09:35:42;;;;;;;2.50;2.20;;;18.40;62.50;;;;;;5059961;28;20453;-71
2022/09/03 09:38:10;;;;;;;2.60;2.20;;;18.30;65.60;;;;;;5069091;28;20450;-74
2022/09/03 09:40:38;;;;;;;2.25;1.95;;;18.30;67.80;;;;;;5059650;28;21122;-72
2022/09/03 09:43:09;;;;;;;2.50;1.98;;;18.40;66.60;;;;;;5056862;28;20516;-73
2022/09/03 09:45:39;;;;;;;2.40;1.80;;;18.40;68.20;;;;;;5057191;28;20439;-73
2022/09/03 09:48:13;;;;;;;2.15;1.95;;;18.40;67.80;;;;;;5065556;28;20542;-71
2022/09/03 09:50:42;;;;;;;2.00;1.80;;;18.40;68.60;;;;;;5062747;28;20538;-73
2022/09/03 09:53:15;;;;;;;1.70;1.60;;;18.40;67.70;;;;;;5063025;28;20428;-72
2022/09/03 09:55:53;;;;;;;4.03;1.98;;;18.50;68.70;;;;;;5058143;28;20998;-73
2022/09/03 09:58:22;;;;;;;2.92;1.90;;;18.70;66.30;;;;;;5055490;28;21147;-73
2022/09/03 10:01:03;;;;;;;1.98;1.88;;;18.70;66.70;;;;;;5062070;28;20423;-73
2022/09/03 10:03:34;;;;;;;2.13;1.80;;;18.90;67.00;;;;;;5055357;28;20510;-70
2022/09/03 10:08:47;;;;;;;2.65;2.00;;;19.50;63.90;;;;;;5054808;28;20439;-71
2022/09/03 10:11:14;;;;;;;2.20;1.60;;;19.70;61.00;;;;;;5060570;28;20955;-71
2022/09/03 10:13:45;;;;;;;1.65;1.50;;;20.10;60.00;;;;;;5065659;28;20431;-73
2022/09/03 10:16:21;;;;;;;2.90;1.85;;;20.60;57.50;;;;;;5064437;28;20752;-72
2022/09/03 10:18:55;;;;;;;1.90;1.80;;;20.80;56.30;;;;;;5066732;28;20431;-73
2022/09/03 10:21:31;;;;;;;2.70;1.80;;;21.20;54.90;;;;;;5065132;28;20431;-71
2022/09/03 10:24:05;;;;;;;2.28;1.80;;;21.30;54.30;;;;;;5060939;28;20442;-71
2022/09/03 10:26:32;;;;;;;3.67;1.70;;;21.30;51.30;;;;;;5064481;28;20464;-71
2022/09/03 10:29:02;;;;;;;1.75;1.60;;;21.00;52.70;;;;;;5064449;28;20449;-71
2022/09/03 10:31:41;;;;;;;2.60;1.70;;;20.80;52.90;;;;;;5064738;28;20439;-73
2022/09/03 10:34:16;;;;;;;3.75;1.73;;;20.90;53.20;;;;;;5063452;28;20464;-72
2022/09/03 10:36:54;;;;;;;3.20;1.80;;;21.00;54.50;;;;;;5061898;28;20439;-72
2022/09/03 10:39:25;;;;;;;2.35;1.70;;;21.30;52.50;;;;;;5062583;28;20533;-70
2022/09/03 10:42:05;;;;;;;2.80;1.90;;;21.80;51.20;;;;;;5062487;28;20431;-72
2022/09/03 10:44:48;;;;;;;2.67;1.73;;;22.30;48.80;;;;;;5061552;28;20866;-70
2022/09/03 10:47:31;;;;;;;2.80;1.50;;;22.70;47.70;;;;;;5059570;28;20427;-70
2022/09/03 10:50:07;;;;;;;2.35;1.40;;;23.20;46.20;;;;;;5058613;28;20478;-71
2022/09/03 10:52:46;;;;;;;2.67;1.40;;;23.80;45.10;;;;;;5065153;28;20423;-70
2022/09/03 10:55:19;;;;;;;2.00;1.55;;;24.20;44.00;;;;;;5065080;28;20419;-70
2022/09/03 10:57:51;;;;;;;2.05;1.70;;;24.20;43.50;;;;;;5064208;28;20912;-71
2022/09/03 11:00:19;;;;;;;2.00;1.80;;;24.10;43.80;;;;;;5063469;28;20422;-70
2022/09/03 11:03:13;;;;;;;2.10;1.60;;;24.20;43.30;;;;;;5063252;28;20463;-70
2022/09/03 11:05:44;;;;;;;2.00;1.50;;;24.50;42.70;;;;;;5054429;28;20825;-70
2022/09/03 11:08:17;;;;;;;2.08;1.50;;;24.60;42.90;;;;;;5064878;28;20423;-70
2022/09/03 11:10:47;;;;;;;1.98;1.60;;;25.10;41.30;;;;;;5060537;28;20879;-70
2022/09/03 11:13:20;;;;;;;2.85;1.80;;;25.10;41.00;;;;;;5062984;28;20578;-70
2022/09/03 11:15:51;;;;;;;2.00;1.70;;;25.00;42.60;;;;;;5064221;28;20536;-70
2022/09/03 11:18:25;;;;;;;1.70;1.60;;;25.10;41.20;;;;;;5064304;28;20411;-72
2022/09/03 11:20:58;;;;;;;3.50;1.90;;;25.30;41.70;;;;;;5057040;28;20433;-72
2022/09/03 11:23:29;;;;;;;1.50;1.40;;;25.70;40.60;;;;;;5068291;28;20427;-71
2022/09/03 11:26:00;;;;;;;1.80;1.50;;;25.90;39.90;;;;;;5058918;28;20513;-72
2022/09/03 11:28:39;;;;;;;1.80;1.70;;;26.10;39.90;;;;;;5063636;28;20415;-70
2022/09/03 11:31:17;;;;;;;2.00;1.50;;;26.10;39.40;;;;;;5062930;28;20956;-70
2022/09/03 11:33:48;;;;;;;2.03;1.65;;;26.30;39.80;;;;;;5063238;28;20431;-71
2022/09/03 11:36:26;;;;;;;1.70;1.60;;;26.50;38.70;;;;;;5059928;28;20458;-70
2022/09/03 11:38:55;;;;;;;2.30;1.70;;;26.40;38.80;;;;;;5063546;28;20412;-70
2022/09/03 11:41:26;;;;;;;1.70;1.60;;;26.60;38.70;;;;;;5063775;28;20493;-72
2022/09/03 11:43:54;;;;;;;2.30;2.10;;;27.10;38.00;;;;;;5064060;28;20980;-72
2022/09/03 11:46:31;;;;;;;2.20;2.10;;;27.10;37.30;;;;;;5068234;28;20450;-72
2022/09/03 11:49:12;;;;;;;2.00;1.90;;;26.90;37.90;;;;;;5067065;28;20796;-72
2022/09/03 11:51:40;;;;;;;1.80;1.70;;;26.90;38.20;;;;;;5061641;28;20427;-70
2022/09/03 11:54:25;;;;;;;1.80;1.70;;;27.20;37.80;;;;;;5064143;28;20462;-70
2022/09/03 11:57:09;;;;;;;2.30;1.63;;;27.60;36.90;;;;;;5064082;28;20838;-70
2022/09/03 11:59:36;;;;;;;1.80;1.70;;;27.60;36.80;;;;;;5064043;28;20793;-70
2022/09/03 12:02:12;;;;;;;1.70;1.60;;;27.50;37.20;;;;;;5066624;28;20423;-70
2022/09/03 12:04:46;;;;;;;1.75;1.65;;;27.30;38.20;;;;;;5057317;28;20428;-70
2022/09/03 12:07:34;;;;;;;1.80;1.70;;;27.30;38.20;;;;;;5053640;28;20423;-72
2022/09/03 12:10:19;;;;;;;1.70;1.60;;;27.70;37.30;;;;;;5063250;28;20439;-70
2022/09/03 12:13:15;;;;;;;3.00;1.75;;;28.20;37.30;;;;;;5063355;28;20420;-70
2022/09/03 12:16:20;;;;;;;2.00;1.80;;;28.50;36.40;;;;;;5047405;28;20434;-70
2022/09/03 12:18:51;;;;;;;1.60;1.50;;;28.90;35.90;;;;;;5051314;28;20448;-72
2022/09/03 12:21:18;;;;;;;2.00;1.60;;;29.20;35.70;;;;;;5061796;28;20463;-71
2022/09/03 12:23:48;;;;;;;2.20;1.70;;;29.20;35.20;;;;;;5066517;28;20518;-70
2022/09/03 12:26:18;;;;;;;2.10;1.90;;;29.00;35.70;;;;;;5066727;28;20438;-72
2022/09/03 12:28:47;;;;;;;2.10;1.90;;;28.80;36.10;;;;;;5064200;28;20532;-72
2022/09/03 12:31:24;;;;;;;1.95;1.60;;;28.80;36.00;;;;;;5067564;28;20507;-72
2022/09/03 12:33:52;;;;;;;1.83;1.73;;;29.20;35.50;;;;;;5066227;28;20505;-72
2022/09/03 12:36:20;;;;;;;1.60;1.50;;;29.00;35.20;;;;;;5076130;28;20423;-72
2022/09/03 12:38:47;;;;;;;1.80;1.60;;;28.90;35.20;;;;;;5066526;28;20481;-72
2022/09/03 12:41:26;;;;;;;2.90;1.85;;;28.80;35.70;;;;;;5086954;22;20438;-72
2022/09/03 12:43:56;;;;;;;2.10;1.90;;;29.00;35.10;;;;;;5066858;28;20423;-72
2022/09/03 12:46:25;;;;;;;1.70;1.60;;;29.00;34.80;;;;;;5058461;28;20439;-71
2022/09/03 12:49:02;;;;;;;1.80;1.70;;;29.00;34.90;;;;;;5066701;28;20462;-71
2022/09/03 12:51:33;;;;;;;1.40;1.30;;;29.30;34.40;;;;;;5066317;28;20955;-71
2022/09/03 12:54:00;;;;;;;1.60;1.50;;;29.50;34.20;;;;;;5072278;28;20421;-70
2022/09/03 12:56:32;;;;;;;2.22;1.65;;;29.40;34.30;;;;;;5070271;28;20496;-72
2022/09/03 12:59:04;;;;;;;1.80;1.70;;;29.30;35.30;;;;;;5057565;28;20427;-77
2022/09/03 13:01:36;;;;;;;1.80;1.70;;;28.90;35.90;;;;;;5069735;28;20428;-76
2022/09/03 13:04:09;;;;;;;2.25;1.60;;;28.50;36.40;;;;;;5070326;28;20431;-77
2022/09/03 13:06:48;;;;;;;2.20;2.00;;;28.40;37.10;;;;;;5068324;28;20420;-74
2022/09/03 13:09:20;;;;;;;2.10;1.90;;;28.50;37.10;;;;;;5070282;28;20420;-74
2022/09/03 13:11:51;;;;;;;1.80;1.70;;;28.60;36.50;;;;;;5059991;28;20437;-74